Time;durP1;ratioP1;P1;durP2;ratioP2;P2;SDS_P1;SDS_P2;PMS_P1;PMS_P2;Temp;Humidity;BMP_temperature;BMP_pressure;BME280_temperature;BME280_humidity;BME280_pressure;Samples;Min_cycle;Max_cycle;Signal;HPM_P1;HPM_P2
2021/10/27 00:00:23;;;;;;;2.83;1.13;;;18.10;68.00;;;;;;4988949;28;98080;-44
2021/10/27 00:02:56;;;;;;;2.78;1.25;;;18.20;67.60;;;;;;4997385;28;95892;-43
2021/10/27 00:05:28;;;;;;;2.65;1.25;;;18.20;66.30;;;;;;4998369;28;95788;-43
2021/10/27 00:08:00;;;;;;;1.77;1.00;;;18.30;65.90;;;;;;4996332;28;96476;-42
2021/10/27 00:10:32;;;;;;;3.40;1.38;;;18.40;64.60;;;;;;4999354;28;95961;-42
2021/10/27 00:13:06;;;;;;;3.28;1.40;;;18.50;65.00;;;;;;4999003;28;96002;-37
2021/10/27 00:15:38;;;;;;;3.00;1.45;;;18.60;64.20;;;;;;4989386;28;96343;-40
2021/10/27 00:18:08;;;;;;;3.60;1.08;;;18.70;64.40;;;;;;4996235;28;95837;-42
2021/10/27 00:20:39;;;;;;;1.27;1.00;;;18.80;63.30;;;;;;4999393;28;98890;-41
2021/10/27 00:23:10;;;;;;;3.97;1.10;;;18.90;59.00;;;;;;4997822;28;96652;-43
2021/10/27 00:25:42;;;;;;;3.42;0.90;;;19.00;62.30;;;;;;4997924;28;96376;-43
2021/10/27 00:28:12;;;;;;;;;;;19.10;60.30;;;;;;4999049;28;95935;-43
2021/10/27 00:30:43;;;;;;;1.98;1.23;;;19.10;61.40;;;;;;5007167;27;97283;-43
2021/10/27 00:33:16;;;;;;;1.55;0.90;;;19.20;61.20;;;;;;4995618;28;95908;-44
2021/10/27 00:35:48;;;;;;;2.42;1.23;;;19.30;59.60;;;;;;4982944;28;96609;-43
2021/10/27 00:38:18;;;;;;;;;;;19.40;61.00;;;;;;5004976;28;96574;-41
2021/10/27 00:40:48;;;;;;;4.57;0.90;;;19.50;60.60;;;;;;5001216;28;95799;-40
2021/10/27 00:43:18;;;;;;;1.50;1.23;;;19.50;60.60;;;;;;5013207;27;97894;-42
2021/10/27 00:45:48;;;;;;;4.28;1.00;;;19.60;59.90;;;;;;4996458;28;96099;-40
2021/10/27 00:48:18;;;;;;;2.00;0.82;;;19.70;55.10;;;;;;5003108;28;96118;-39
2021/10/27 00:50:50;;;;;;;2.38;1.15;;;19.70;56.30;;;;;;4996939;28;96342;-38
2021/10/27 00:53:22;;;;;;;2.55;0.68;;;19.80;57.10;;;;;;5002875;28;95888;-43
2021/10/27 00:55:54;;;;;;;1.45;0.98;;;19.90;57.20;;;;;;5004062;28;96045;-41
2021/10/27 00:58:26;;;;;;;2.30;0.82;;;19.90;55.30;;;;;;5002509;28;96346;-43
2021/10/27 01:00:57;;;;;;;3.70;1.02;;;20.00;53.90;;;;;;4994952;28;96592;-44
2021/10/27 01:03:29;;;;;;;2.20;0.75;;;20.00;52.60;;;;;;4999843;28;95760;-43
2021/10/27 01:06:01;;;;;;;1.52;0.85;;;20.00;54.30;;;;;;4977591;28;96679;-42
2021/10/27 01:08:33;;;;;;;3.70;1.33;;;20.10;52.20;;;;;;4977776;28;96567;-43
2021/10/27 01:11:05;;;;;;;2.58;1.00;;;20.20;53.40;;;;;;5017443;27;98288;-46
2021/10/27 01:13:36;;;;;;;3.58;0.80;;;20.20;54.10;;;;;;4990272;28;95921;-43
2021/10/27 01:16:07;;;;;;;5.63;1.00;;;20.40;53.60;;;;;;4977803;28;99975;-42
2021/10/27 01:18:39;;;;;;;4.05;1.60;;;20.50;53.10;;;;;;4987881;28;95831;-37
2021/10/27 01:21:11;;;;;;;4.85;1.00;;;20.70;52.30;;;;;;4975285;28;96571;-42
2021/10/27 01:23:43;;;;;;;2.33;0.90;;;20.80;52.60;;;;;;4989505;28;97101;-42
2021/10/27 01:26:14;;;;;;;3.50;0.93;;;21.00;49.90;;;;;;4998272;28;95942;-43
2021/10/27 01:28:46;;;;;;;2.03;0.63;;;21.20;52.40;;;;;;4997857;28;96369;-42
2021/10/27 01:31:19;;;;;;;3.88;1.05;;;21.30;52.80;;;;;;4993634;28;95922;-42
2021/10/27 01:33:51;;;;;;;1.50;0.88;;;21.50;53.10;;;;;;4968763;28;97429;-41
2021/10/27 01:36:22;;;;;;;3.67;1.00;;;21.60;51.40;;;;;;4989354;27;97115;-42
2021/10/27 01:38:52;;;;;;;0.98;0.80;;;21.60;50.00;;;;;;4994579;28;96126;-42
2021/10/27 01:41:22;;;;;;;1.35;0.85;;;21.80;51.60;;;;;;4995633;28;96458;-42
2021/10/27 01:43:56;;;;;;;3.42;0.80;;;21.90;50.50;;;;;;4996513;28;95738;-40
2021/10/27 01:46:30;;;;;;;0.98;0.90;;;22.00;50.90;;;;;;4995802;28;95943;-42
2021/10/27 01:49:01;;;;;;;1.30;0.77;;;22.10;51.20;;;;;;5001658;28;96682;-42
2021/10/27 01:51:33;;;;;;;3.72;1.05;;;22.20;51.30;;;;;;5001078;28;97610;-47
2021/10/27 01:54:05;;;;;;;1.13;0.95;;;22.40;50.30;;;;;;4995216;28;96111;-42
2021/10/27 01:56:38;;;;;;;1.92;1.15;;;22.50;50.80;;;;;;4969843;28;96007;-42
2021/10/27 01:59:10;;;;;;;2.80;1.10;;;22.60;51.40;;;;;;4966181;28;96464;-39
2021/10/27 02:01:41;;;;;;;2.60;1.08;;;22.70;51.00;;;;;;4996837;28;95909;-41
2021/10/27 02:04:14;;;;;;;1.23;0.93;;;22.70;50.10;;;;;;4971900;28;96156;-41
2021/10/27 02:06:45;;;;;;;1.92;1.05;;;22.80;48.70;;;;;;4988125;28;95730;-42
2021/10/27 02:09:16;;;;;;;2.47;0.80;;;22.80;48.00;;;;;;5000200;28;95833;-36
2021/10/27 02:11:49;;;;;;;3.28;1.05;;;22.90;49.80;;;;;;4990550;28;96743;-43
2021/10/27 02:14:19;;;;;;;0.93;0.85;;;23.00;49.00;;;;;;4996162;28;95392;-40
2021/10/27 02:16:51;;;;;;;1.17;1.00;;;23.00;49.60;;;;;;4991951;28;96648;-41
2021/10/27 02:19:22;;;;;;;1.30;1.15;;;23.00;49.00;;;;;;5000464;28;95733;-41
2021/10/27 02:21:54;;;;;;;2.85;1.10;;;23.10;49.70;;;;;;4997597;28;96055;-42
2021/10/27 02:24:25;;;;;;;2.17;1.05;;;23.10;48.00;;;;;;4979302;28;96403;-41
2021/10/27 02:26:55;;;;;;;2.00;0.93;;;22.90;49.00;;;;;;4998088;28;96149;-42
2021/10/27 02:29:27;;;;;;;2.88;1.30;;;22.80;48.20;;;;;;4996261;28;95628;-40
2021/10/27 02:32:00;;;;;;;1.23;0.90;;;22.80;48.40;;;;;;4989875;28;95993;-41
2021/10/27 02:34:31;;;;;;;3.67;1.13;;;22.70;44.10;;;;;;4996737;28;95876;-42
2021/10/27 02:37:01;;;;;;;;;;;22.50;45.60;;;;;;4979483;28;96620;-43
2021/10/27 02:39:34;;;;;;;3.10;1.10;;;22.60;47.40;;;;;;4997200;28;95825;-42
2021/10/27 02:42:04;;;;;;;2.30;1.00;;;22.60;47.50;;;;;;4996504;28;96768;-42
2021/10/27 02:44:35;;;;;;;2.42;1.30;;;22.60;46.00;;;;;;4996441;28;96407;-42
2021/10/27 02:47:05;;;;;;;;;;;22.60;45.80;;;;;;4988941;28;96015;-43
2021/10/27 02:49:37;;;;;;;;;;;22.70;45.50;;;;;;4999249;28;95773;-43
2021/10/27 02:52:11;;;;;;;2.78;1.00;;;22.80;48.10;;;;;;4984283;28;96812;-41
2021/10/27 02:54:41;;;;;;;2.15;1.13;;;22.90;48.00;;;;;;4989342;28;95910;-43
2021/10/27 02:57:13;;;;;;;1.58;1.10;;;22.90;48.20;;;;;;4983428;28;96697;-43
2021/10/27 02:59:45;;;;;;;2.63;0.93;;;23.00;48.10;;;;;;4994882;28;95882;-42
2021/10/27 03:02:17;;;;;;;3.28;1.17;;;23.10;47.70;;;;;;4984790;28;96648;-37
2021/10/27 03:04:49;;;;;;;2.47;1.35;;;23.10;46.40;;;;;;4997089;28;96469;-40
2021/10/27 03:07:21;;;;;;;1.42;1.00;;;23.10;48.00;;;;;;4988975;28;95711;-40
2021/10/27 03:09:56;;;;;;;2.83;1.20;;;23.10;46.00;;;;;;4996004;28;96614;-38
2021/10/27 03:12:28;;;;;;;1.08;0.98;;;23.10;47.10;;;;;;4992297;28;95928;-39
2021/10/27 03:14:59;;;;;;;3.70;1.20;;;23.20;47.60;;;;;;4986304;28;96661;-39
2021/10/27 03:17:29;;;;;;;1.15;1.00;;;23.30;46.80;;;;;;4988220;28;96072;-35
2021/10/27 03:20:01;;;;;;;1.95;1.10;;;23.30;47.60;;;;;;4987534;28;96078;-41
2021/10/27 03:22:31;;;;;;;;;;;23.30;47.40;;;;;;4988287;28;96236;-40
2021/10/27 03:25:03;;;;;;;3.22;1.30;;;23.40;45.20;;;;;;4992818;28;97435;-40
2021/10/27 03:27:35;;;;;;;2.75;1.27;;;23.40;47.30;;;;;;4979524;28;96689;-37
2021/10/27 03:30:07;;;;;;;4.32;1.35;;;23.50;47.10;;;;;;4963256;28;96828;-38
2021/10/27 03:32:38;;;;;;;2.20;1.52;;;23.50;47.30;;;;;;4985498;28;95868;-37
2021/10/27 03:35:09;;;;;;;2.20;1.30;;;23.60;47.30;;;;;;4992594;28;97450;-39
2021/10/27 03:37:39;;;;;;;1.40;1.27;;;23.60;47.20;;;;;;4991445;28;96604;-40
2021/10/27 03:40:10;;;;;;;3.70;1.10;;;23.60;47.40;;;;;;4996757;28;96641;-41
2021/10/27 03:42:40;;;;;;;2.70;1.35;;;23.70;48.50;;;;;;4996956;28;95847;-43
2021/10/27 03:45:13;;;;;;;5.60;1.60;;;23.70;47.30;;;;;;4992140;28;95991;-41
2021/10/27 03:47:43;;;;;;;4.38;1.40;;;23.70;46.90;;;;;;4997577;28;95945;-39
2021/10/27 03:50:14;;;;;;;2.63;1.35;;;23.80;46.60;;;;;;4996467;28;95764;-43
2021/10/27 03:52:44;;;;;;;2.90;1.42;;;23.80;47.10;;;;;;4992780;28;95871;-39
2021/10/27 03:55:15;;;;;;;1.70;1.17;;;23.90;47.50;;;;;;4975040;28;95986;-38
2021/10/27 03:57:45;;;;;;;2.38;1.67;;;23.90;48.00;;;;;;4998017;28;96315;-39
2021/10/27 04:00:16;;;;;;;1.80;1.23;;;24.00;48.40;;;;;;4993981;28;95894;-44
2021/10/27 04:02:47;;;;;;;2.17;1.45;;;24.00;48.70;;;;;;4992613;28;96248;-41
2021/10/27 04:05:20;;;;;;;1.67;1.25;;;24.00;50.00;;;;;;4995029;28;96601;-41
2021/10/27 04:07:51;;;;;;;1.50;1.00;;;23.90;50.70;;;;;;4997816;28;97081;-39
2021/10/27 04:10:25;;;;;;;2.95;1.38;;;23.90;51.60;;;;;;4994300;28;95982;-40
2021/10/27 04:12:56;;;;;;;1.83;1.35;;;23.80;52.00;;;;;;4996583;28;96122;-41
2021/10/27 04:15:29;;;;;;;3.20;1.30;;;23.80;52.30;;;;;;4998405;28;97533;-39
2021/10/27 04:18:00;;;;;;;1.95;1.50;;;23.80;52.80;;;;;;5000697;28;97121;-41
2021/10/27 04:20:31;;;;;;;;;;;23.70;53.00;;;;;;4983399;28;97728;-41
2021/10/27 04:23:03;;;;;;;3.63;1.75;;;23.70;53.50;;;;;;5003989;28;96220;-40
2021/10/27 04:25:34;;;;;;;1.92;1.35;;;23.70;53.80;;;;;;5000172;28;95887;-41
2021/10/27 04:28:06;;;;;;;2.65;1.48;;;23.70;54.10;;;;;;4996914;28;95932;-40
2021/10/27 04:30:36;;;;;;;;;;;23.60;55.00;;;;;;4993887;28;96102;-41
2021/10/27 04:33:21;;;;;;;1.65;1.23;;;23.60;54.50;;;;;;5003722;28;96056;-41
2021/10/27 04:35:53;;;;;;;4.80;1.23;;;23.60;54.50;;;;;;5001995;28;95785;-41
2021/10/27 04:38:23;;;;;;;2.13;1.45;;;23.60;54.70;;;;;;5000499;28;95731;-41
2021/10/27 04:40:53;;;;;;;1.30;1.20;;;23.60;55.00;;;;;;5002643;28;95795;-40
2021/10/27 04:43:23;;;;;;;4.07;1.47;;;23.60;55.10;;;;;;4999076;28;96878;-40
2021/10/27 04:45:53;;;;;;;2.20;1.00;;;23.50;55.20;;;;;;4992771;28;95903;-40
2021/10/27 04:48:25;;;;;;;2.78;1.42;;;23.50;55.30;;;;;;5003494;28;95961;-42
2021/10/27 04:50:55;;;;;;;2.08;1.33;;;23.50;55.40;;;;;;5002182;28;95896;-42
2021/10/27 04:53:25;;;;;;;2.83;1.00;;;23.50;55.60;;;;;;5005482;28;96713;-38
2021/10/27 04:55:56;;;;;;;1.67;1.10;;;23.50;55.70;;;;;;5002220;28;95809;-40
2021/10/27 04:58:29;;;;;;;1.00;1.00;;;23.50;56.00;;;;;;5000587;28;95761;-40
2021/10/27 05:01:00;;;;;;;1.30;1.20;;;23.50;56.10;;;;;;4971473;28;99388;-40
2021/10/27 05:03:31;;;;;;;1.42;1.10;;;23.40;56.00;;;;;;5001613;28;98059;-41
2021/10/27 05:06:04;;;;;;;2.50;1.30;;;23.50;56.30;;;;;;4998263;28;96174;-41
2021/10/27 05:08:35;;;;;;;1.25;0.80;;;23.50;56.30;;;;;;5002870;28;95850;-41
2021/10/27 05:11:06;;;;;;;2.00;1.30;;;23.50;56.30;;;;;;5003558;28;97941;-41
2021/10/27 05:13:37;;;;;;;1.45;1.08;;;23.50;56.40;;;;;;4996195;28;96354;-42
2021/10/27 05:16:08;;;;;;;1.83;1.00;;;23.50;56.50;;;;;;4994899;28;96099;-41
2021/10/27 05:18:40;;;;;;;1.40;1.27;;;23.50;56.80;;;;;;4997359;28;96014;-38
2021/10/27 05:21:12;;;;;;;2.42;1.17;;;23.50;56.90;;;;;;5002166;28;95815;-41
2021/10/27 05:23:46;;;;;;;1.30;0.80;;;23.50;56.90;;;;;;5001277;28;96143;-36
2021/10/27 05:26:17;;;;;;;1.60;1.13;;;23.50;56.90;;;;;;5000020;28;95958;-39
2021/10/27 05:28:48;;;;;;;2.03;1.45;;;23.60;57.00;;;;;;5001677;28;95789;-39
2021/10/27 05:31:19;;;;;;;1.10;1.00;;;23.60;57.00;;;;;;4997863;28;98115;-36
2021/10/27 05:33:50;;;;;;;2.65;1.35;;;23.60;57.10;;;;;;4996614;28;98200;-41
2021/10/27 05:36:21;;;;;;;1.55;1.00;;;23.70;57.30;;;;;;4999326;28;95937;-40
2021/10/27 05:38:51;;;;;;;1.73;1.08;;;23.70;57.20;;;;;;5002427;28;95766;-42
2021/10/27 05:41:22;;;;;;;1.75;1.25;;;23.70;57.20;;;;;;5001389;28;95843;-43
2021/10/27 05:43:54;;;;;;;2.05;1.23;;;23.70;57.20;;;;;;4982730;28;96054;-40
2021/10/27 05:46:25;;;;;;;1.55;1.10;;;23.80;57.30;;;;;;4994631;28;98505;-39
2021/10/27 05:49:03;;;;;;;1.40;1.30;;;23.80;54.70;;;;;;5002336;28;95825;-36
2021/10/27 05:51:54;;;;;;;1.75;1.20;;;23.80;57.30;;;;;;4997627;28;96050;-41
2021/10/27 05:57:14;;;;;;;1.02;0.70;;;23.80;57.30;;;;;;4981819;28;97413;-41
2021/10/27 05:59:47;;;;;;;1.55;1.05;;;23.80;57.30;;;;;;4998464;28;96183;-39
2021/10/27 06:02:18;;;;;;;1.13;1.00;;;23.90;57.40;;;;;;4996708;28;97678;-40
2021/10/27 06:04:49;;;;;;;2.83;1.23;;;23.90;57.40;;;;;;5001161;28;95907;-42
2021/10/27 06:07:21;;;;;;;1.58;0.90;;;23.90;57.30;;;;;;4996322;28;95841;-40
2021/10/27 06:09:54;;;;;;;1.20;1.10;;;23.90;57.30;;;;;;4997842;28;95907;-37
2021/10/27 06:12:26;;;;;;;1.90;0.82;;;24.00;57.40;;;;;;4983880;28;96128;-40
2021/10/27 06:14:57;;;;;;;1.50;0.90;;;24.00;57.50;;;;;;5000872;28;95920;-39
2021/10/27 06:17:27;;;;;;;1.02;0.88;;;24.10;57.60;;;;;;4992006;28;96614;-40
2021/10/27 06:19:57;;;;;;;1.05;0.88;;;24.20;56.30;;;;;;4999083;28;96540;-39
2021/10/27 06:22:33;;;;;;;1.38;0.98;;;24.30;57.70;;;;;;5001751;28;95906;-42
2021/10/27 06:25:09;;;;;;;2.72;1.23;;;24.40;57.70;;;;;;4996826;28;95913;-42
2021/10/27 06:27:44;;;;;;;2.45;0.80;;;24.40;53.70;;;;;;4999945;28;96538;-40
2021/10/27 06:30:27;;;;;;;1.20;0.80;;;24.40;53.40;;;;;;4992991;28;95923;-41
2021/10/27 06:33:16;;;;;;;2.53;1.10;;;24.40;53.00;;;;;;5000542;28;96158;-42
2021/10/27 06:35:55;;;;;;;1.40;1.27;;;24.40;50.60;;;;;;4999835;28;95995;-42
2021/10/27 06:38:45;;;;;;;2.78;0.88;;;24.40;50.10;;;;;;4994839;28;95911;-41
2021/10/27 06:46:55;;;;;;;1.60;1.02;;;24.40;46.60;;;;;;4995069;28;95885;-39
2021/10/27 06:49:26;;;;;;;;;;;24.40;48.00;;;;;;5001022;28;98033;-42
2021/10/27 06:51:58;;;;;;;4.78;1.02;;;24.40;47.20;;;;;;5000838;28;95935;-44
2021/10/27 06:54:30;;;;;;;3.53;1.08;;;24.40;47.60;;;;;;4996595;28;95895;-41
2021/10/27 06:57:00;;;;;;;7.53;0.95;;;24.40;41.90;;;;;;4993612;28;95869;-39
2021/10/27 06:59:35;;;;;;;2.22;1.17;;;24.20;45.30;;;;;;4994431;28;96989;-42
2021/10/27 07:02:31;;;;;;;4.75;0.80;;;24.20;45.40;;;;;;4990523;28;95705;-41
2021/10/27 07:16:20;;;;;;;4.68;1.30;;;23.90;44.70;;;;;;4988082;28;95329;-40
2021/10/27 07:18:52;;;;;;;1.33;1.13;;;23.80;44.10;;;;;;4992002;28;95882;-42
2021/10/27 07:21:23;;;;;;;6.40;1.17;;;23.80;43.60;;;;;;4999065;28;95873;-42
2021/10/27 07:23:55;;;;;;;2.65;0.90;;;23.90;44.50;;;;;;4998376;28;95945;-43
2021/10/27 07:26:26;;;;;;;3.08;1.25;;;23.90;44.40;;;;;;5000197;28;96241;-42
2021/10/27 07:28:58;;;;;;;3.60;1.08;;;23.90;44.90;;;;;;4980447;28;96569;-41
2021/10/27 07:31:30;;;;;;;1.40;1.00;;;23.90;45.40;;;;;;4988607;28;95702;-40
2021/10/27 07:34:11;;;;;;;4.20;1.08;;;23.80;44.80;;;;;;4998463;28;96011;-41
2021/10/27 07:42:20;;;;;;;2.70;1.10;;;23.70;45.10;;;;;;4998077;28;97595;-40
2021/10/27 07:44:50;;;;;;;2.03;1.15;;;23.60;45.40;;;;;;4997984;28;96496;-41
2021/10/27 07:47:20;;;;;;;3.45;1.30;;;23.60;45.70;;;;;;4990021;28;95872;-42
2021/10/27 07:49:51;;;;;;;4.53;1.90;;;23.70;46.20;;;;;;4994165;28;96412;-42
2021/10/27 07:52:21;;;;;;;1.67;0.90;;;23.70;47.00;;;;;;4995848;28;95778;-41
2021/10/27 07:54:55;;;;;;;3.92;1.10;;;23.50;45.40;;;;;;4996449;28;95598;-43
2021/10/27 07:57:25;;;;;;;1.65;0.90;;;23.50;45.70;;;;;;4980953;28;96100;-44
2021/10/27 07:59:57;;;;;;;1.48;1.10;;;23.40;44.80;;;;;;4978538;28;96054;-44
2021/10/27 08:02:28;;;;;;;2.75;1.00;;;23.40;45.10;;;;;;4991588;28;100119;-41
2021/10/27 08:05:06;;;;;;;2.03;1.17;;;23.30;45.70;;;;;;4981853;28;95832;-42
2021/10/27 08:07:45;;;;;;;5.78;1.30;;;23.30;46.30;;;;;;4998472;28;96479;-42
2021/10/27 08:10:21;;;;;;;3.17;1.25;;;23.30;46.90;;;;;;4992195;28;96759;-40
2021/10/27 08:12:53;;;;;;;1.90;1.15;;;23.30;45.70;;;;;;4991275;28;95859;-42
2021/10/27 08:15:25;;;;;;;2.65;0.95;;;23.20;47.40;;;;;;4991516;28;96667;-38
2021/10/27 08:17:56;;;;;;;2.28;1.33;;;23.20;47.50;;;;;;4997211;28;96047;-36
2021/10/27 08:20:30;;;;;;;2.38;1.10;;;23.10;47.30;;;;;;4995284;28;96235;-41
2021/10/27 08:23:02;;;;;;;1.55;0.90;;;23.10;48.50;;;;;;4996572;28;99206;-40
2021/10/27 08:25:49;;;;;;;5.47;1.70;;;23.10;45.70;;;;;;4999102;28;95917;-39
2021/10/27 08:28:30;;;;;;;1.63;1.00;;;23.00;49.90;;;;;;4994066;28;95782;-39
2021/10/27 08:31:08;;;;;;;2.20;1.10;;;22.90;47.70;;;;;;4988355;28;96514;-39
2021/10/27 08:36:20;;;;;;;3.15;0.90;;;22.60;50.70;;;;;;4995223;28;95615;-39
2021/10/27 08:38:50;;;;;;;;;;;22.60;50.60;;;;;;4985101;28;96641;-40
2021/10/27 08:41:41;;;;;;;1.73;1.10;;;22.50;50.70;;;;;;4991595;28;95880;-40
2021/10/27 08:44:12;;;;;;;2.42;1.30;;;22.30;51.20;;;;;;4963979;28;95736;-40
2021/10/27 08:46:44;;;;;;;2.97;1.40;;;22.10;51.20;;;;;;4991804;28;95476;-41
2021/10/27 08:49:18;;;;;;;2.92;1.10;;;22.00;51.80;;;;;;4992844;28;95328;-42
2021/10/27 08:51:52;;;;;;;1.92;1.33;;;21.90;52.30;;;;;;4987876;28;96595;-40
2021/10/27 08:54:24;;;;;;;2.38;0.90;;;21.90;52.30;;;;;;4988166;28;98756;-42
2021/10/27 08:56:57;;;;;;;2.13;0.85;;;21.70;52.60;;;;;;5001685;28;96457;-38
2021/10/27 08:59:53;;;;;;;2.03;1.05;;;21.60;53.30;;;;;;5000635;28;95875;-42
2021/10/27 09:05:04;;;;;;;1.55;0.98;;;21.60;54.00;;;;;;4998942;28;96511;-41
2021/10/27 09:08:03;;;;;;;2.20;1.08;;;21.70;54.00;;;;;;5000307;28;95358;-39
2021/10/27 09:16:56;;;;;;;2.35;1.13;;;21.20;54.10;;;;;;4994044;28;95760;-40
2021/10/27 09:43:08;;;;;;;5.03;1.08;;;20.60;55.60;;;;;;4998240;28;95793;-38
2021/10/27 10:05:33;;;;;;;7.32;5.95;;;21.20;56.90;;;;;;5000685;28;95739;-40
2021/10/27 10:08:05;;;;;;;9.45;5.18;;;21.20;57.00;;;;;;4999541;28;96034;-41
2021/10/27 10:10:37;;;;;;;8.73;5.45;;;21.60;54.90;;;;;;4999715;28;96595;-42
2021/10/27 10:13:09;;;;;;;8.32;4.97;;;21.70;57.60;;;;;;4999681;28;95850;-37
2021/10/27 10:15:40;;;;;;;7.10;4.82;;;22.00;57.10;;;;;;4991728;28;97265;-36
2021/10/27 10:18:10;;;;;;;8.40;4.63;;;22.10;56.80;;;;;;4994898;28;95849;-35
2021/10/27 10:20:42;;;;;;;7.82;4.63;;;22.20;56.50;;;;;;4999490;28;96540;-39
2021/10/27 10:23:25;;;;;;;5.10;4.03;;;22.40;56.90;;;;;;5000325;28;98297;-38
2021/10/27 10:25:57;;;;;;;4.40;3.47;;;22.60;56.90;;;;;;4984010;28;95895;-40
2021/10/27 10:28:42;;;;;;;4.38;3.97;;;22.80;56.90;;;;;;5000309;28;95845;-38
2021/10/27 10:31:32;;;;;;;4.53;4.13;;;23.00;56.70;;;;;;4995012;28;96544;-38
2021/10/27 10:34:09;;;;;;;4.00;3.38;;;23.20;56.40;;;;;;4994020;28;96096;-40
2021/10/27 10:36:44;;;;;;;5.18;3.58;;;23.30;56.20;;;;;;5000003;28;95871;-37
2021/10/27 10:39:50;;;;;;;5.45;3.28;;;23.50;56.10;;;;;;5001559;28;99210;-41
2021/10/27 10:42:57;;;;;;;3.15;2.92;;;23.50;53.20;;;;;;4999760;28;95941;-41
2021/10/27 10:55:36;;;;;;;8.13;4.05;;;23.60;55.90;;;;;;4995190;28;95953;-40
2021/10/27 11:11:33;;;;;;;4.35;2.30;;;20.80;54.50;;;;;;4990925;28;96494;-42
2021/10/27 11:38:07;;;;;;;8.75;3.80;;;19.50;59.40;;;;;;4998989;28;95413;-40
2021/10/27 11:40:41;;;;;;;7.75;4.78;;;19.50;59.00;;;;;;4995312;28;96815;-41
2021/10/27 11:51:14;;;;;;;4.28;3.00;;;20.10;63.10;;;;;;5000301;28;96607;-39
2021/10/27 11:53:48;;;;;;;4.15;2.92;;;20.70;62.20;;;;;;4997597;28;95896;-43
2021/10/27 11:56:24;;;;;;;3.92;2.60;;;21.00;61.30;;;;;;4996504;28;95676;-42
2021/10/27 11:59:01;;;;;;;4.90;2.83;;;21.20;60.70;;;;;;4995684;28;95418;-48
2021/10/27 12:01:41;;;;;;;2.95;2.58;;;21.30;60.40;;;;;;4991129;28;96344;-43
2021/10/27 12:04:16;;;;;;;4.60;2.90;;;21.30;60.40;;;;;;4998539;28;95804;-43
2021/10/27 12:06:57;;;;;;;3.17;2.47;;;21.30;60.20;;;;;;4998126;28;95975;-39
2021/10/27 12:10:05;;;;;;;6.25;2.58;;;21.40;60.50;;;;;;5000402;28;95811;-39
2021/10/27 12:18:11;;;;;;;3.88;2.63;;;21.90;59.90;;;;;;4998389;28;95304;-38
2021/10/27 12:20:53;;;;;;;3.92;2.17;;;22.00;59.70;;;;;;4976481;28;95784;-40
2021/10/27 12:23:29;;;;;;;3.42;2.45;;;22.10;59.60;;;;;;4998847;28;96550;-43
2021/10/27 12:26:07;;;;;;;2.95;2.40;;;22.20;59.50;;;;;;4998209;28;95907;-40
2021/10/27 12:28:39;;;;;;;2.75;2.20;;;22.20;59.40;;;;;;4996456;28;95301;-38
2021/10/27 12:31:24;;;;;;;2.28;2.08;;;22.30;59.50;;;;;;4993014;28;95588;-40
2021/10/27 12:33:56;;;;;;;3.70;2.53;;;22.30;59.40;;;;;;5001250;28;96684;-40
2021/10/27 12:36:33;;;;;;;5.25;3.72;;;22.40;59.40;;;;;;5001343;28;95916;-42
2021/10/27 12:39:17;;;;;;;5.28;3.25;;;21.90;55.80;;;;;;4994568;28;95646;-43
2021/10/27 12:42:10;;;;;;;10.77;4.15;;;21.10;53.80;;;;;;5002589;28;97179;-43
2021/10/27 12:44:50;;;;;;;11.32;4.55;;;20.40;58.30;;;;;;4981662;28;95866;-39
2021/10/27 12:47:29;;;;;;;9.38;4.82;;;20.50;59.10;;;;;;4989984;28;96007;-41
2021/10/27 12:50:25;;;;;;;7.65;4.20;;;20.50;59.20;;;;;;4994883;28;95555;-44
2021/10/27 12:53:01;;;;;;;6.80;3.67;;;20.50;59.70;;;;;;4982515;28;96014;-39
2021/10/27 12:55:39;;;;;;;4.93;3.53;;;20.40;59.10;;;;;;5001617;28;98612;-41
2021/10/27 12:58:15;;;;;;;6.65;2.60;;;20.30;59.20;;;;;;4997425;28;95929;-37
2021/10/27 13:00:59;;;;;;;3.53;2.50;;;20.30;59.80;;;;;;4994165;28;95909;-42
2021/10/27 13:07:05;;;;;;;2.97;1.58;;;20.20;59.40;;;;;;4987946;28;96540;-43
2021/10/27 13:23:38;;;;;;;4.10;1.50;;;19.70;59.10;;;;;;5015017;27;95792;-45
2021/10/27 13:31:24;;;;;;;2.38;1.73;;;19.40;59.00;;;;;;4997230;28;99759;-41
2021/10/27 13:33:56;;;;;;;5.18;1.35;;;19.60;59.50;;;;;;4998771;28;95542;-38
2021/10/27 13:36:27;;;;;;;1.85;1.13;;;19.60;59.30;;;;;;4995918;28;95835;-41
2021/10/27 13:39:00;;;;;;;5.10;1.50;;;19.60;58.90;;;;;;4996160;28;98446;-37
2021/10/27 13:41:31;;;;;;;2.88;1.10;;;19.60;59.70;;;;;;4996910;28;97577;-38
2021/10/27 13:44:27;;;;;;;3.95;1.38;;;19.60;59.10;;;;;;4980616;28;96249;-42
2021/10/27 13:57:43;;;;;;;3.47;1.40;;;19.50;59.30;;;;;;4964664;28;98284;-39
2021/10/27 14:06:55;;;;;;;3.42;1.63;;;19.70;63.90;;;;;;5001131;28;96015;-43
2021/10/27 14:15:19;;;;;;;1.92;1.40;;;20.30;62.40;;;;;;4994418;28;95910;-44
2021/10/27 14:18:11;;;;;;;1.83;1.27;;;20.30;62.20;;;;;;4990477;28;95449;-44
2021/10/27 14:41:33;;;;;;;2.10;1.67;;;20.20;63.00;;;;;;4998350;28;99214;-41
2021/10/27 15:21:09;;;;;;;2.03;1.65;;;19.50;63.50;;;;;;5000663;28;95823;-39
2021/10/27 15:23:54;;;;;;;2.35;1.80;;;19.50;63.70;;;;;;4992637;28;96145;-40
2021/10/27 15:29:19;;;;;;;3.90;2.17;;;19.50;63.80;;;;;;4999142;28;95712;-41
2021/10/27 15:40:27;;;;;;;2.25;1.40;;;19.40;64.00;;;;;;5003329;28;95366;-38
2021/10/27 15:51:24;;;;;;;3.55;2.03;;;19.20;64.40;;;;;;4993956;28;98832;-42
2021/10/27 15:53:55;;;;;;;3.28;2.03;;;19.20;64.40;;;;;;5000015;28;96107;-40
2021/10/27 15:56:30;;;;;;;2.45;2.03;;;19.20;64.50;;;;;;5000200;28;97810;-40
2021/10/27 15:59:03;;;;;;;3.15;1.92;;;19.20;64.50;;;;;;4997565;28;95723;-41
2021/10/27 16:01:35;;;;;;;2.80;2.13;;;19.10;64.50;;;;;;5000703;28;96053;-39
2021/10/27 16:04:08;;;;;;;2.92;1.80;;;19.10;64.60;;;;;;5000239;28;95870;-37
2021/10/27 16:06:41;;;;;;;2.38;1.92;;;19.10;64.60;;;;;;4997198;28;95805;-43
2021/10/27 16:09:13;;;;;;;7.47;1.67;;;19.10;64.60;;;;;;4986945;28;96156;-42
2021/10/27 16:11:44;;;;;;;3.55;2.17;;;19.10;64.80;;;;;;4999675;28;96044;-41
2021/10/27 16:14:20;;;;;;;3.72;1.88;;;19.00;64.70;;;;;;5000371;28;95917;-39
2021/10/27 16:16:50;;;;;;;4.32;2.05;;;19.00;64.80;;;;;;4994209;28;96117;-41
2021/10/27 16:19:29;;;;;;;2.75;1.92;;;19.00;64.90;;;;;;5001325;28;95856;-32
2021/10/27 16:22:10;;;;;;;4.97;2.35;;;19.00;65.00;;;;;;4996059;28;95773;-32
2021/10/27 16:24:42;;;;;;;2.00;1.60;;;18.90;65.10;;;;;;4987129;28;96048;-32
2021/10/27 16:27:14;;;;;;;2.60;1.75;;;18.90;65.20;;;;;;4997412;28;95985;-33
2021/10/27 16:29:46;;;;;;;3.30;2.03;;;18.90;65.30;;;;;;4998763;28;97681;-32
2021/10/27 16:32:16;;;;;;;3.10;2.13;;;18.90;65.30;;;;;;4992065;28;95789;-32
2021/10/27 16:34:48;;;;;;;4.53;1.95;;;18.90;65.40;;;;;;5003140;28;96142;-40
2021/10/27 16:37:26;;;;;;;3.42;2.13;;;18.90;65.50;;;;;;4992421;28;97352;-40
2021/10/27 16:39:56;;;;;;;3.30;2.17;;;18.80;65.50;;;;;;4992408;28;95947;-43
2021/10/27 16:42:42;;;;;;;1.98;1.60;;;18.80;65.50;;;;;;4985822;28;95466;-40
2021/10/27 16:45:14;;;;;;;2.53;1.80;;;18.80;65.50;;;;;;4992598;28;96130;-41
2021/10/27 16:47:45;;;;;;;2.38;1.38;;;18.80;65.50;;;;;;4995670;28;96871;-42
2021/10/27 16:50:19;;;;;;;2.67;1.73;;;18.80;65.60;;;;;;4995981;28;95439;-39
2021/10/27 16:52:51;;;;;;;1.95;1.38;;;18.80;65.70;;;;;;4991303;28;96100;-42
2021/10/27 16:55:22;;;;;;;2.50;1.38;;;18.70;65.70;;;;;;4993887;28;96184;-39
2021/10/27 16:57:57;;;;;;;2.08;1.38;;;18.70;65.80;;;;;;4998539;28;98211;-42
2021/10/27 17:00:30;;;;;;;2.22;1.63;;;18.70;65.80;;;;;;4987877;28;95832;-41
2021/10/27 17:03:03;;;;;;;1.60;1.50;;;18.70;66.00;;;;;;4998166;28;95854;-41
2021/10/27 17:05:36;;;;;;;4.00;1.75;;;18.60;66.00;;;;;;5000333;28;95953;-40
2021/10/27 17:08:11;;;;;;;3.38;1.90;;;18.60;66.00;;;;;;5005490;28;95885;-42
2021/10/27 17:10:46;;;;;;;3.05;1.70;;;18.60;66.00;;;;;;4994277;28;95788;-41
2021/10/27 17:13:19;;;;;;;1.95;1.58;;;18.60;66.10;;;;;;4990025;28;95761;-40
2021/10/27 17:15:52;;;;;;;2.70;1.38;;;18.60;66.20;;;;;;4985327;28;95937;-40
2021/10/27 17:18:23;;;;;;;2.60;1.50;;;18.50;66.20;;;;;;4998672;28;95942;-42
2021/10/27 17:20:54;;;;;;;1.50;1.05;;;18.50;66.30;;;;;;4996770;28;95795;-41
2021/10/27 17:23:32;;;;;;;3.30;1.63;;;18.50;66.40;;;;;;4993465;28;95733;-42
2021/10/27 17:26:02;;;;;;;4.47;1.70;;;18.50;66.60;;;;;;4994006;28;96595;-42
2021/10/27 17:28:35;;;;;;;1.38;1.25;;;18.40;66.40;;;;;;4999612;28;95972;-38
2021/10/27 17:31:07;;;;;;;1.80;1.38;;;18.50;66.60;;;;;;4985861;28;98321;-40
2021/10/27 17:33:39;;;;;;;1.67;1.30;;;18.40;66.60;;;;;;5014305;27;95666;-39
2021/10/27 17:36:25;;;;;;;3.45;1.50;;;18.40;65.00;;;;;;4997943;28;96057;-39
2021/10/27 17:39:03;;;;;;;3.58;1.73;;;18.40;66.70;;;;;;4998018;28;96117;-39
2021/10/27 17:41:37;;;;;;;3.03;2.22;;;18.40;66.80;;;;;;4978521;28;95271;-40
2021/10/27 17:44:08;;;;;;;2.13;1.35;;;18.30;66.80;;;;;;4998023;28;96436;-41
2021/10/27 17:47:08;;;;;;;2.08;1.45;;;18.30;66.80;;;;;;4988522;28;96098;-43
2021/10/27 17:50:05;;;;;;;2.25;1.48;;;18.30;67.00;;;;;;5001994;28;95750;-39